createdAt,value
2022-10-01T00:00:01.566Z,10.89
2022-10-01T00:15:06.271Z,10.94
2022-10-01T00:30:03.473Z,10.94
2022-10-01T00:45:04.080Z,10.94
2022-10-01T01:00:01.649Z,10.94
2022-10-01T01:14:59.687Z,11
2022-10-01T01:29:59.887Z,10.94
2022-10-01T01:45:03.750Z,10.94
2022-10-01T02:00:04.074Z,10.94
2022-10-01T02:15:03.287Z,10.94
2022-10-01T02:30:03.176Z,10.94
2022-10-01T02:45:03.151Z,10.94
2022-10-01T03:00:01.859Z,10.94
2022-10-01T03:15:04.549Z,10.94
2022-10-01T03:30:02.225Z,10.89
2022-10-01T03:45:02.035Z,10.89
2022-10-01T04:00:04.333Z,10.94
2022-10-01T04:14:59.941Z,11
2022-10-01T04:29:59.814Z,10.94
2022-10-01T04:45:03.304Z,10.94
2022-10-01T05:00:02.682Z,10.94
2022-10-01T05:15:02.765Z,10.94
2022-10-01T05:30:02.293Z,11
2022-10-01T05:45:02.435Z,11
2022-10-01T06:00:03.311Z,11.06
2022-10-01T06:15:00.405Z,11.17
2022-10-01T06:30:02.185Z,11.33
2022-10-01T06:45:03.739Z,11.44
2022-10-01T06:59:59.364Z,11.72
2022-10-01T07:15:01.352Z,12.33
2022-10-01T07:30:22.309Z,12.78
2022-10-01T07:45:00.407Z,13.06
2022-10-01T07:59:59.849Z,13.61
2022-10-01T08:15:04.507Z,14
2022-10-01T08:30:01.302Z,14.28
2022-10-01T08:45:00.892Z,14.44
2022-10-01T09:00:03.497Z,15.28
2022-10-01T09:15:02.268Z,15.5
2022-10-01T09:30:06.320Z,15.22
2022-10-01T09:45:03.092Z,15.67
2022-10-01T10:00:03.707Z,16.5
2022-10-01T10:15:04.241Z,16.78
2022-10-01T10:29:59.199Z,16.89
2022-10-01T10:45:01.763Z,16.94
2022-10-01T11:00:01.229Z,17.44
2022-10-01T11:15:00.930Z,17.94
2022-10-01T11:30:01.897Z,18.33
2022-10-01T11:45:03.158Z,18.44
2022-10-01T12:00:03.515Z,18.39
2022-10-01T12:15:04.094Z,18.33
2022-10-01T12:30:04.376Z,18.39
2022-10-01T12:45:01.179Z,18.5
2022-10-01T13:00:04.570Z,18.56
2022-10-01T13:15:05.218Z,18.72
2022-10-01T13:30:02.561Z,18.94
2022-10-01T13:45:01.090Z,18.83
2022-10-01T14:00:00.182Z,18.56
2022-10-01T14:14:59.205Z,18.33
2022-10-01T14:30:04.207Z,18
2022-10-01T14:45:03.000Z,17.89
2022-10-01T15:00:03.522Z,18.22
2022-10-01T15:15:03.626Z,18.28
2022-10-01T15:30:00.873Z,18
2022-10-01T15:45:04.182Z,17.67
2022-10-01T16:00:02.740Z,17.28
2022-10-01T16:04:34.762Z,17.17
2022-10-01T16:16:04.116Z,16.94
2022-10-01T16:31:04.239Z,16.5
2022-10-01T16:45:59.260Z,15.61
2022-10-01T16:59:59.126Z,14.94
2022-10-01T17:15:59.171Z,14.28
2022-10-01T17:30:59.172Z,13.83
2022-10-01T17:45:59.148Z,13.33
2022-10-01T18:00:01.124Z,13.39
2022-10-01T18:14:59.105Z,13.44
2022-10-01T21:27:56.874Z,13
2022-10-01T21:30:59.825Z,13
2022-10-01T21:45:59.990Z,13
2022-10-01T22:00:00.028Z,13.06
2022-10-01T22:15:59.910Z,13
2022-10-01T22:30:59.895Z,12.89
2022-10-01T22:45:59.923Z,12.67
2022-10-01T23:00:00.870Z,12.56
2022-10-01T23:15:59.902Z,12.5
2022-10-01T23:30:59.935Z,12.44
2022-10-01T23:46:00.001Z,12.22
2022-10-01T23:59:59.841Z,12
